Pagrindinis puslapis
METAR-TAF:

METAR-TAF

Oro uostai :

Halmstadas, Švedija

platuma: 56-41N, ilguma: 012-50E, Aukštis: 30 m

Dabartinis oras

Ataskaita buvo paskelbta 19 minutes, ne 12:50 UTC
Vėjas 13 kt iš Vakarų
Temperatūra 6°C
Drėgmė 87%
Slėgis 1004 hPa
Matomumas 10 km arba daugiau
Mažai debesys ne aukštis 1000 ft
Išsisklaidę debesys ne aukštis 1400 ft
Su prošvaistėmis ne aukštis 1800 ft

METAR: ESMT 191250Z 28013KT 9999 FEW010 SCT014 BKN018 06/04 Q1004

Laikas: 14:09 (13:09 UTC)

Prognozė

Ataskaita buvo paskelbta 2 valandos ir 1 minutes, ne 11:08 UTC
Prognozė galioja nuo 19 metu 12 UTC su 19 metu 20 UTC
Vėjas 10 kt iš Vakarų
Matomumas 10 km arba daugiau
Išsisklaidę debesys ne aukštis 2000 ft
Laikinai
nuo 19 metu 12 UTC su 19 metu 14 UTC
Su prošvaistėmis ne aukštis 1000 ft
Išsisklaidę debesys ne aukštis 2000 ft, Liūtiniai kamuoliniai debesys.
lietus

TAF: ESMT 191108Z 1912/1920 28010KT 9999 SCT020 TEMPO 1912/1914 SHRA BKN010 SCT020CB

Orai ataskaitas ir orų prognozės (METAR, TAF).

turimą stotys yra geltonos ir raudonos taškus žemėlapyje.

Perkelti pele per norėdami pamatyti stoties vardą.

Tada spustelėkite, norėdami matyti oro stebėjimo ir prognozės.

Norėdami pakeisti žemėlapį: spustelėkite ant žalios mygtukų su juodo kryžiaus žemyn,; žalią mygtuką su brūkšneliu, jei norite nutolinti; arba žalių rodyklių gretimoms žemėlapius.


METAR-TAF: